الصفحة الرئيسية
METAR-TAF:

METAR-TAF

مطار :

مطار شيان شيانيانغ الدولي

شيان, جمهورية الصين الشعبية

دائرة عرض: 34-26N, خط طول: 108-45E, ارتفاع: 479 متر

مراقبة الطقس الحالي

تاريخ ووقت الإصدار 18 دقيقة قبل الساعة 04:00UTC
ريح 4 عقدةمن اتجاهات متغيرة
درجة الحرارة 19°درجة مئوية
الرطوبة 37%
ضغط 1020 hPa
الرؤية: 8000 متر

METAR: ZLXY 060400Z VRB02MPS 8000 NSC 19/04 Q1020 NOSIG

زمن: 12:18 (04:18 UTC)

توقعات

تاريخ ووقت الإصدار 7ساعات و 17 دقيقة قبل الساعة 21:01UTC
التوقعات صالحة من06 الساعة 00 UTC إلى 06 الساعة 24 UTC
ريح 6 عقدة من الشرق
الرؤية: 3000 متر
العجاج

TAF: ZLXY 052101Z 0600/0624 08003MPS 3000 HZ NSC TX21/0608Z TN07/0622Z

أرصاد الطقس والتوقعات من أكثر من 4000 مطار (تقارير الطقس للمطار METAR والتنبؤ بالطقس بالمطارTAF).

المحطات المتاحة هي النقط الصفراء والحمراء على الخريطة.

حرك المؤشر فوق النقطة لمعرفة اسم المحطة.

ثم انقر لمعرفة أرصاد وتوقعات الطقس.

لتغيير الخارطة: اضغط على الأزرار الخضراء مع رمز الصليب الأسود للتكبير. على الزر الأخضر مع شرطة للتصغير، أو على الأسهم الخضراء للخرائط المجاورة.


METAR-TAF: